createdAt,value
2019-05-07T00:00:46.636Z,14.55
2019-05-07T00:03:17.937Z,16.60
2019-05-07T00:05:48.127Z,14.98
2019-05-07T00:08:18.305Z,11.90
2019-05-07T00:10:48.515Z,11.90
2019-05-07T00:13:18.810Z,12.60
2019-05-07T00:15:49.174Z,11.88
2019-05-07T00:18:19.474Z,14.25
2019-05-07T00:20:49.452Z,16.62
2019-05-07T00:23:19.654Z,15.72
2019-05-07T00:25:49.912Z,14.00
2019-05-07T00:28:20.209Z,16.48
2019-05-07T00:30:52.120Z,15.65
2019-05-07T00:33:23.123Z,15.17
2019-05-07T00:35:55.008Z,13.60
2019-05-07T00:38:26.646Z,15.90
2019-05-07T00:41:07.531Z,18.60
2019-05-07T00:43:38.609Z,14.25
2019-05-07T00:46:13.399Z,15.72
2019-05-07T00:48:43.561Z,13.45
2019-05-07T00:51:24.397Z,16.15
2019-05-07T00:53:54.983Z,11.60
2019-05-07T00:56:25.393Z,10.93
2019-05-07T00:58:55.553Z,13.32
2019-05-07T01:01:25.707Z,12.80
2019-05-07T01:03:55.947Z,11.35
2019-05-07T01:06:26.622Z,11.65
2019-05-07T01:08:57.008Z,13.80
2019-05-07T01:11:27.302Z,11.70
2019-05-07T01:13:57.564Z,12.47
2019-05-07T01:16:27.643Z,12.68
2019-05-07T01:18:57.827Z,13.30
2019-05-07T01:21:27.707Z,13.83
2019-05-07T01:23:57.899Z,13.35
2019-05-07T01:26:32.917Z,12.25
2019-05-07T01:29:03.290Z,10.47
2019-05-07T01:31:36.028Z,10.03
2019-05-07T01:34:23.213Z,11.60
2019-05-07T01:36:53.566Z,9.05
2019-05-07T01:39:23.451Z,12.23
2019-05-07T01:41:53.808Z,8.68
2019-05-07T01:44:24.052Z,9.45
2019-05-07T01:46:54.298Z,10.23
2019-05-07T01:49:24.526Z,8.75
2019-05-07T01:51:54.894Z,9.38
2019-05-07T01:54:24.782Z,9.75
2019-05-07T01:56:54.864Z,10.95
2019-05-07T01:59:24.897Z,13.53
2019-05-07T02:01:56.711Z,15.38
2019-05-07T02:04:42.617Z,10.18
2019-05-07T02:07:26.874Z,15.10
2019-05-07T02:10:02.831Z,10.50
2019-05-07T02:12:35.124Z,11.60
2019-05-07T02:15:07.021Z,13.13
2019-05-07T02:17:36.971Z,11.95
2019-05-07T02:20:07.455Z,11.25
2019-05-07T02:22:37.654Z,14.80
2019-05-07T02:25:07.959Z,12.35
2019-05-07T02:27:37.819Z,12.55
2019-05-07T02:30:08.362Z,10.58
2019-05-07T02:32:43.380Z,10.90
2019-05-07T02:35:13.632Z,13.30
2019-05-07T02:37:51.342Z,13.72
2019-05-07T02:40:19.263Z,16.15
2019-05-07T02:42:49.492Z,9.25
2019-05-07T02:45:32.932Z,12.80
2019-05-07T02:48:03.496Z,8.85
2019-05-07T02:50:34.754Z,12.93
2019-05-07T02:53:06.671Z,9.28
2019-05-07T02:55:44.479Z,9.65
2019-05-07T02:58:14.572Z,11.83
2019-05-07T03:00:44.951Z,11.12
2019-05-07T03:03:15.271Z,9.20
2019-05-07T03:05:45.244Z,9.48
2019-05-07T03:08:15.494Z,10.82
2019-05-07T03:10:45.781Z,9.80
2019-05-07T03:13:15.901Z,10.45
2019-05-07T03:15:46.303Z,10.98
2019-05-07T03:18:18.967Z,11.65
2019-05-07T03:20:49.688Z,11.50
2019-05-07T03:23:22.808Z,9.68
2019-05-07T03:25:54.555Z,14.73
2019-05-07T03:28:25.965Z,10.63
2019-05-07T03:31:05.748Z,10.90
2019-05-07T03:33:48.241Z,8.58
2019-05-07T03:36:20.109Z,8.25
2019-05-07T03:38:50.419Z,10.05
2019-05-07T03:41:22.667Z,10.55
2019-05-07T03:43:53.092Z,9.40
2019-05-07T03:46:23.737Z,9.40
2019-05-07T03:48:53.992Z,11.00
2019-05-07T03:51:24.096Z,10.88
2019-05-07T03:53:54.791Z,9.70
2019-05-07T03:56:25.090Z,10.18
2019-05-07T03:58:55.216Z,13.10
2019-05-07T04:01:25.407Z,8.63
2019-05-07T04:03:56.499Z,9.65
2019-05-07T04:06:26.436Z,9.30
2019-05-07T04:08:56.545Z,8.95
2019-05-07T04:11:29.349Z,6.87
2019-05-07T04:14:02.342Z,12.35
2019-05-07T04:16:33.260Z,16.52
2019-05-07T04:19:03.916Z,8.85
2019-05-07T04:21:34.602Z,13.38
2019-05-07T04:24:23.516Z,19.85
2019-05-07T04:26:55.372Z,10.10
2019-05-07T04:29:26.594Z,14.28
2019-05-07T04:31:56.836Z,11.15
2019-05-07T04:34:46.800Z,11.20
2019-05-07T04:37:16.627Z,37.15
2019-05-07T04:39:54.045Z,31.48
2019-05-07T04:42:25.459Z,16.27
2019-05-07T04:44:56.627Z,17.40
2019-05-07T04:47:41.320Z,14.60
2019-05-07T04:49:58.066Z,11.93
2019-05-07T04:52:33.669Z,12.65
2019-05-07T04:55:05.327Z,16.32
2019-05-07T04:57:35.311Z,11.05
2019-05-07T05:00:07.662Z,11.28
2019-05-07T05:02:48.789Z,14.98
2019-05-07T05:05:23.260Z,24.63
2019-05-07T05:07:53.384Z,13.00
2019-05-07T05:10:24.700Z,14.80
2019-05-07T05:12:55.807Z,13.38
2019-05-07T05:15:25.995Z,13.00
2019-05-07T05:17:56.232Z,10.93
2019-05-07T05:20:30.809Z,13.08
2019-05-07T05:23:08.047Z,10.65
2019-05-07T05:25:43.093Z,12.58
2019-05-07T05:28:13.686Z,10.63
2019-05-07T05:30:55.150Z,11.05
2019-05-07T05:33:25.256Z,14.33
2019-05-07T05:35:56.390Z,10.82
2019-05-07T05:38:26.440Z,13.85
2019-05-07T05:40:57.648Z,10.78
2019-05-07T05:43:32.085Z,14.03
2019-05-07T05:46:07.071Z,14.70
2019-05-07T05:48:37.654Z,11.78
2019-05-07T05:51:26.017Z,13.35
2019-05-07T05:53:57.482Z,17.95
2019-05-07T05:56:29.266Z,14.65
2019-05-07T05:59:25.356Z,10.95
2019-05-07T06:02:06.665Z,12.88
2019-05-07T06:04:38.300Z,15.60
2019-05-07T06:07:14.780Z,11.45
2019-05-07T06:10:02.771Z,11.90
2019-05-07T06:12:37.069Z,17.70
2019-05-07T06:15:24.247Z,12.90
2019-05-07T06:17:55.840Z,10.43
2019-05-07T06:20:36.457Z,13.98
2019-05-07T06:23:12.691Z,12.82
2019-05-07T06:25:44.098Z,12.23
2019-05-07T06:28:14.252Z,14.28
2019-05-07T06:30:44.146Z,13.22
2019-05-07T06:33:14.072Z,10.23
2019-05-07T06:35:44.245Z,11.85
2019-05-07T06:38:15.149Z,13.30
2019-05-07T06:40:55.739Z,15.85
2019-05-07T06:43:33.200Z,13.60
2019-05-07T06:46:04.989Z,13.75
2019-05-07T06:48:42.418Z,13.72
2019-05-07T06:51:07.604Z,10.90
2019-05-07T06:53:37.768Z,13.53
2019-05-07T06:56:08.014Z,10.28
2019-05-07T06:58:42.732Z,13.43
2019-05-07T07:01:23.292Z,7.97
2019-05-07T07:04:02.641Z,12.82
2019-05-07T07:06:38.052Z,9.15
2019-05-07T07:09:22.566Z,12.23
2019-05-07T07:11:54.491Z,10.98
2019-05-07T07:14:24.815Z,12.50
2019-05-07T07:16:55.078Z,12.30
2019-05-07T07:19:25.333Z,9.58
2019-05-07T07:21:55.723Z,9.20
2019-05-07T07:24:26.838Z,9.38
2019-05-07T07:26:57.015Z,11.18
2019-05-07T07:29:28.861Z,11.80
2019-05-07T07:32:03.434Z,10.55
2019-05-07T07:34:35.194Z,11.43
2019-05-07T07:37:10.965Z,10.13
2019-05-07T07:39:39.102Z,11.28
2019-05-07T07:42:12.284Z,8.73
2019-05-07T07:44:42.642Z,10.78
2019-05-07T07:47:13.109Z,11.85
2019-05-07T07:49:43.317Z,17.32
2019-05-07T07:52:13.205Z,12.03
2019-05-07T07:54:43.356Z,12.50
2019-05-07T07:57:16.107Z,13.68
2019-05-07T07:59:53.603Z,20.90
2019-05-07T08:02:28.065Z,9.20
2019-05-07T08:04:58.291Z,13.00
2019-05-07T08:07:28.204Z,10.95
2019-05-07T08:09:58.123Z,13.55
2019-05-07T08:12:28.056Z,11.05
2019-05-07T08:15:13.604Z,13.80
2019-05-07T08:17:32.506Z,12.20
2019-05-07T08:20:02.612Z,13.50
2019-05-07T08:22:33.074Z,10.40
2019-05-07T08:25:04.483Z,12.70
2019-05-07T08:27:34.764Z,10.93
2019-05-07T08:30:07.313Z,12.30
2019-05-07T08:32:39.332Z,10.08
2019-05-07T08:35:23.402Z,12.95
2019-05-07T08:37:53.346Z,14.07
2019-05-07T08:40:23.595Z,10.00
2019-05-07T08:42:54.661Z,13.25
2019-05-07T08:45:43.295Z,12.35
2019-05-07T08:48:18.924Z,10.60
2019-05-07T08:50:49.152Z,14.35
2019-05-07T08:53:19.380Z,10.65
2019-05-07T08:55:49.638Z,11.55
2019-05-07T08:58:19.900Z,9.88
2019-05-07T09:00:52.166Z,12.73
2019-05-07T09:03:35.670Z,12.47
2019-05-07T09:06:05.943Z,13.20
2019-05-07T09:08:36.101Z,8.20
2019-05-07T09:11:06.418Z,10.98
2019-05-07T09:13:36.753Z,10.43
2019-05-07T09:16:07.029Z,9.80
2019-05-07T09:18:37.293Z,14.33
2019-05-07T09:21:07.521Z,8.03
2019-05-07T09:23:37.929Z,8.83
2019-05-07T09:26:09.847Z,10.68
2019-05-07T09:28:53.056Z,8.80
2019-05-07T09:31:24.849Z,11.83
2019-05-07T09:34:03.702Z,8.85
2019-05-07T09:36:38.092Z,11.30
2019-05-07T09:39:08.532Z,10.93
2019-05-07T09:41:38.742Z,11.22
2019-05-07T09:44:08.973Z,10.75
2019-05-07T09:46:39.249Z,9.85
2019-05-07T09:49:09.333Z,8.90
2019-05-07T09:51:39.508Z,10.85
2019-05-07T09:54:09.874Z,7.80
2019-05-07T09:56:42.125Z,13.28
2019-05-07T09:59:12.587Z,9.23
2019-05-07T10:01:42.989Z,9.43
2019-05-07T10:04:14.360Z,9.33
2019-05-07T10:06:44.544Z,12.40
2019-05-07T10:09:15.002Z,11.43
2019-05-07T10:12:02.763Z,10.90
2019-05-07T10:14:33.200Z,9.65
2019-05-07T10:17:09.139Z,8.65
2019-05-07T10:19:39.121Z,6.25
2019-05-07T10:22:09.114Z,8.15
2019-05-07T10:24:41.775Z,6.50
2019-05-07T10:27:12.657Z,6.42
2019-05-07T10:29:42.924Z,8.55
2019-05-07T10:32:13.336Z,6.42
2019-05-07T10:34:43.758Z,8.75
2019-05-07T10:37:14.095Z,9.88
2019-05-07T10:39:44.134Z,6.30
2019-05-07T10:42:14.045Z,6.85
2019-05-07T10:44:48.771Z,7.40
2019-05-07T10:47:26.322Z,8.58
2019-05-07T10:50:16.043Z,7.28
2019-05-07T10:52:46.470Z,8.33
2019-05-07T10:55:16.880Z,6.60
2019-05-07T10:57:47.248Z,5.55
2019-05-07T11:00:19.325Z,7.08
2019-05-07T11:02:49.309Z,5.53
2019-05-07T11:05:21.819Z,7.45
2019-05-07T11:07:53.723Z,6.78
2019-05-07T11:10:23.942Z,5.45
2019-05-07T11:12:54.015Z,9.10
2019-05-07T11:15:25.263Z,7.60
2019-05-07T11:18:12.679Z,7.62
2019-05-07T11:20:49.727Z,10.45
2019-05-07T11:23:16.066Z,9.65
2019-05-07T11:25:46.139Z,8.13
2019-05-07T11:28:16.459Z,10.53
2019-05-07T11:30:46.719Z,9.30
2019-05-07T11:33:16.852Z,9.15
2019-05-07T11:35:46.790Z,8.63
2019-05-07T11:38:21.511Z,8.35
2019-05-07T11:40:49.195Z,7.80
2019-05-07T11:43:25.808Z,7.78
2019-05-07T11:46:15.861Z,5.55
2019-05-07T11:48:56.324Z,8.38
2019-05-07T11:51:36.957Z,4.97
2019-05-07T11:54:14.193Z,7.67
2019-05-07T11:56:44.205Z,8.28
2019-05-07T11:59:14.507Z,6.55
2019-05-07T12:02:04.209Z,6.78
2019-05-07T12:04:34.575Z,10.15
2019-05-07T12:07:04.930Z,6.08
2019-05-07T12:09:35.282Z,8.68
2019-05-07T12:12:06.500Z,5.30
2019-05-07T12:14:36.840Z,5.62
2019-05-07T12:17:07.319Z,7.85
2019-05-07T12:19:37.240Z,4.85
2019-05-07T12:22:07.601Z,4.90
2019-05-07T12:24:37.820Z,7.05
2019-05-07T12:27:09.493Z,5.75
2019-05-07T12:29:40.038Z,6.35
2019-05-07T12:32:22.078Z,6.15
2019-05-07T12:34:54.012Z,15.63
2019-05-07T12:37:24.280Z,20.25
2019-05-07T12:39:54.541Z,8.58
2019-05-07T12:42:24.935Z,6.58
2019-05-07T12:44:55.255Z,10.08
2019-05-07T12:47:25.702Z,7.60
2019-05-07T12:49:55.735Z,7.80
2019-05-07T12:52:27.779Z,7.58
2019-05-07T12:54:59.844Z,5.75
2019-05-07T12:57:30.457Z,7.62
2019-05-07T13:00:02.537Z,5.75
2019-05-07T13:02:40.932Z,6.47
2019-05-07T13:05:07.707Z,7.03
2019-05-07T13:07:41.815Z,7.55
2019-05-07T13:10:12.151Z,7.62
2019-05-07T13:12:44.380Z,5.30
2019-05-07T13:15:26.774Z,7.87
2019-05-07T13:17:47.607Z,6.05
2019-05-07T13:20:17.940Z,7.22
2019-05-07T13:22:48.262Z,4.15
2019-05-07T13:25:18.549Z,5.25
2019-05-07T13:27:48.567Z,4.55
2019-05-07T13:30:22.075Z,5.20
2019-05-07T13:32:53.512Z,6.03
2019-05-07T13:35:25.200Z,5.22
2019-05-07T13:38:03.108Z,6.30
2019-05-07T13:40:37.406Z,7.80
2019-05-07T13:43:18.197Z,6.75
2019-05-07T13:46:08.095Z,7.72
2019-05-07T13:48:42.424Z,5.83
2019-05-07T13:51:13.451Z,8.03
2019-05-07T13:53:48.087Z,5.53
2019-05-07T13:56:18.843Z,5.37
2019-05-07T13:58:49.369Z,6.67
2019-05-07T14:01:32.648Z,6.05
2019-05-07T14:04:04.097Z,5.20
2019-05-07T14:06:42.707Z,4.53
2019-05-07T14:09:15.492Z,6.10
2019-05-07T14:11:45.944Z,6.90
2019-05-07T14:14:16.750Z,7.25
2019-05-07T14:16:50.013Z,7.72
2019-05-07T14:19:22.477Z,6.37
2019-05-07T14:21:55.977Z,6.20
2019-05-07T14:24:33.620Z,6.87
2019-05-07T14:27:11.287Z,5.37
2019-05-07T14:29:42.882Z,6.67
2019-05-07T14:32:16.468Z,8.45
2019-05-07T14:35:04.283Z,12.25
2019-05-07T14:37:39.022Z,5.55
2019-05-07T14:40:09.888Z,5.10
2019-05-07T14:42:47.656Z,5.37
2019-05-07T14:45:18.154Z,6.87
2019-05-07T14:47:48.220Z,7.37
2019-05-07T14:50:22.408Z,8.40
2019-05-07T14:52:55.272Z,7.67
2019-05-07T14:55:24.390Z,8.55
2019-05-07T14:57:55.211Z,10.78
2019-05-07T15:00:25.475Z,8.35
2019-05-07T15:02:55.810Z,7.45
2019-05-07T15:05:26.337Z,9.03
2019-05-07T15:08:07.488Z,22.45
2019-05-07T15:10:28.916Z,8.28
2019-05-07T15:12:59.264Z,17.57
2019-05-07T15:15:30.543Z,12.90
2019-05-07T15:18:18.427Z,10.30
2019-05-07T15:20:48.807Z,14.28
2019-05-07T15:23:23.545Z,6.75
2019-05-07T15:25:54.065Z,11.57
2019-05-07T15:28:24.479Z,7.78
2019-05-07T15:30:59.393Z,5.78
2019-05-07T15:33:32.343Z,8.45
2019-05-07T15:36:06.099Z,7.72
2019-05-07T15:38:35.410Z,6.37
2019-05-07T15:41:05.627Z,5.42
2019-05-07T15:43:35.659Z,9.18
2019-05-07T15:46:06.020Z,6.58
2019-05-07T15:48:36.686Z,6.85
2019-05-07T15:51:07.088Z,6.40
2019-05-07T15:53:56.221Z,4.97
2019-05-07T15:56:26.766Z,5.58
2019-05-07T15:58:56.876Z,4.95
2019-05-07T16:01:28.412Z,9.58
2019-05-07T16:03:58.878Z,6.22
2019-05-07T16:06:28.921Z,11.57
2019-05-07T16:09:04.194Z,41.05
2019-05-07T16:11:34.073Z,8.60
2019-05-07T16:14:06.044Z,9.05
2019-05-07T16:16:42.721Z,6.05
2019-05-07T16:19:14.519Z,7.90
2019-05-07T16:21:44.801Z,7.40
2019-05-07T16:24:14.815Z,5.45
2019-05-07T16:26:45.360Z,8.80
2019-05-07T16:29:15.749Z,7.20
2019-05-07T16:31:48.661Z,9.33
2019-05-07T16:34:17.619Z,7.85
2019-05-07T16:36:47.718Z,6.87
2019-05-07T16:39:17.763Z,6.83
2019-05-07T16:41:47.924Z,10.70
2019-05-07T16:44:17.939Z,8.53
2019-05-07T16:46:48.213Z,8.48
2019-05-07T16:49:18.274Z,10.58
2019-05-07T16:51:48.365Z,6.20
2019-05-07T16:54:18.694Z,6.90
2019-05-07T16:57:06.480Z,8.20
2019-05-07T16:59:36.873Z,5.17
2019-05-07T17:02:09.004Z,5.17
2019-05-07T17:04:42.504Z,10.40
2019-05-07T17:07:14.625Z,8.88
2019-05-07T17:09:53.009Z,9.13
2019-05-07T17:12:23.196Z,6.80
2019-05-07T17:14:53.109Z,8.58
2019-05-07T17:17:23.362Z,4.90
2019-05-07T17:19:53.952Z,8.95
2019-05-07T17:22:25.271Z,4.92
2019-05-07T17:24:58.053Z,4.75
2019-05-07T17:27:32.160Z,6.95
2019-05-07T17:30:02.905Z,8.38
2019-05-07T17:32:33.318Z,7.83
2019-05-07T17:35:03.667Z,4.83
2019-05-07T17:37:34.540Z,5.92
2019-05-07T17:40:06.822Z,7.47
2019-05-07T17:42:37.071Z,6.42
2019-05-07T17:45:08.628Z,6.97
2019-05-07T17:47:38.896Z,8.78
2019-05-07T17:50:12.675Z,8.03
2019-05-07T17:52:43.133Z,10.48
2019-05-07T17:55:13.207Z,7.53
2019-05-07T17:57:43.534Z,5.53
2019-05-07T18:00:15.210Z,5.53
2019-05-07T18:03:04.178Z,3.60
2019-05-07T18:05:35.767Z,9.23
2019-05-07T18:08:06.074Z,8.13
2019-05-07T18:10:36.543Z,5.97
2019-05-07T18:13:08.181Z,8.55
2019-05-07T18:15:38.576Z,6.65
2019-05-07T18:18:12.804Z,4.40
2019-05-07T18:20:43.191Z,8.18
2019-05-07T18:23:16.894Z,6.78
2019-05-07T18:25:46.114Z,8.63
2019-05-07T18:28:16.223Z,11.97
2019-05-07T18:30:46.702Z,9.30
2019-05-07T18:33:19.039Z,8.08
2019-05-07T18:35:52.524Z,8.58
2019-05-07T18:38:22.996Z,9.80
2019-05-07T18:40:53.540Z,8.65
2019-05-07T18:43:43.170Z,7.00
2019-05-07T18:46:18.957Z,4.95
2019-05-07T18:49:08.687Z,8.88
2019-05-07T18:51:52.161Z,13.60
2019-05-07T18:54:30.296Z,11.43
2019-05-07T18:56:55.212Z,12.07
2019-05-07T18:59:27.141Z,16.12
2019-05-07T19:01:57.442Z,18.12
2019-05-07T19:04:30.177Z,10.55
2019-05-07T19:09:32.013Z,33.30
2019-05-07T19:12:03.091Z,17.62
2019-05-07T19:14:34.866Z,12.80
2019-05-07T19:17:05.303Z,50.55
2019-05-07T19:19:37.263Z,39.78
2019-05-07T19:22:09.650Z,42.30
2019-05-07T19:24:45.316Z,36.03
2019-05-07T19:27:12.575Z,8.23
2019-05-07T19:29:45.681Z,5.85
2019-05-07T19:32:14.997Z,8.50
2019-05-07T19:34:45.475Z,7.67
2019-05-07T19:37:16.122Z,8.25
2019-05-07T19:39:46.868Z,118.57
2019-05-07T19:42:17.227Z,69.22
2019-05-07T19:44:47.854Z,75.83
2019-05-07T19:47:18.400Z,19.50
2019-05-07T19:49:49.835Z,9.58
2019-05-07T19:52:20.210Z,65.03
2019-05-07T19:54:58.748Z,168.72
2019-05-07T19:57:23.757Z,110.40
2019-05-07T19:59:55.041Z,277.27
2019-05-07T20:02:28.048Z,305.83
2019-05-07T20:04:58.157Z,282.92
2019-05-07T20:07:28.202Z,143.65
2019-05-07T20:09:58.839Z,140.22
2019-05-07T20:12:32.113Z,52.58
2019-05-07T20:17:34.046Z,15.13
2019-05-07T20:20:06.526Z,16.87
2019-05-07T20:22:36.840Z,40.20
2019-05-07T20:25:18.567Z,26.17
2019-05-07T20:27:41.839Z,31.57
2019-05-07T20:30:12.508Z,25.97
2019-05-07T20:32:42.929Z,27.40
2019-05-07T20:35:13.426Z,19.55
2019-05-07T20:37:43.797Z,28.73
2019-05-07T20:40:14.248Z,32.25
2019-05-07T20:42:44.486Z,48.95
2019-05-07T20:45:14.950Z,45.20
2019-05-07T20:47:46.193Z,22.25
2019-05-07T20:50:16.524Z,21.00
2019-05-07T20:52:46.760Z,15.53
2019-05-07T20:55:28.176Z,27.52
2019-05-07T20:57:51.698Z,32.70
2019-05-07T21:00:24.161Z,29.18
2019-05-07T21:03:12.527Z,43.70
2019-05-07T21:05:42.884Z,37.30
2019-05-07T21:08:13.060Z,26.20
2019-05-07T21:10:43.278Z,17.82
2019-05-07T21:13:27.654Z,25.85
2019-05-07T21:15:45.926Z,16.25
2019-05-07T21:18:16.281Z,18.60
2019-05-07T21:20:46.639Z,17.57
2019-05-07T21:23:17.700Z,15.32
2019-05-07T21:25:47.921Z,16.57
2019-05-07T21:28:18.126Z,14.18
2019-05-07T21:30:48.284Z,24.32
2019-05-07T21:33:18.557Z,26.77
2019-05-07T21:35:48.791Z,30.15
2019-05-07T21:38:22.088Z,20.95
2019-05-07T21:40:51.632Z,17.98
2019-05-07T21:43:22.874Z,20.00
2019-05-07T21:45:53.174Z,21.07
2019-05-07T21:48:23.144Z,20.90
2019-05-07T21:50:53.666Z,36.03
2019-05-07T21:53:43.451Z,38.28
2019-05-07T21:56:22.662Z,17.57
2019-05-07T21:58:56.819Z,28.85
2019-05-07T22:01:28.889Z,21.70
2019-05-07T22:04:01.726Z,10.50
2019-05-07T22:06:31.140Z,8.95
2019-05-07T22:09:01.960Z,9.18
2019-05-07T22:11:33.692Z,10.58
2019-05-07T22:14:03.706Z,10.80
2019-05-07T22:16:34.044Z,9.83
2019-05-07T22:19:04.626Z,15.10
2019-05-07T22:21:34.769Z,26.42
2019-05-07T22:24:04.932Z,27.77
2019-05-07T22:26:35.225Z,21.30
2019-05-07T22:29:05.324Z,11.55
2019-05-07T22:31:43.962Z,22.58
2019-05-07T22:34:31.208Z,28.12
2019-05-07T22:37:03.279Z,17.25
2019-05-07T22:39:43.904Z,24.15
2019-05-07T22:42:15.656Z,28.92
2019-05-07T22:44:45.585Z,21.37
2019-05-07T22:47:18.981Z,12.88
2019-05-07T22:49:49.992Z,12.58
2019-05-07T22:52:22.248Z,9.80
2019-05-07T22:54:51.767Z,13.32
2019-05-07T22:57:23.727Z,11.38
2019-05-07T22:59:53.682Z,9.93
2019-05-07T23:02:23.735Z,21.33
2019-05-07T23:04:53.611Z,27.13
2019-05-07T23:07:23.734Z,28.32
2019-05-07T23:09:53.883Z,29.00
2019-05-07T23:12:24.104Z,19.10
2019-05-07T23:14:54.300Z,22.40
2019-05-07T23:17:24.474Z,10.45
2019-05-07T23:19:55.129Z,18.55
2019-05-07T23:22:25.168Z,24.77
2019-05-07T23:24:55.343Z,14.10
2019-05-07T23:27:25.463Z,23.27
2019-05-07T23:29:55.502Z,23.47
2019-05-07T23:32:25.739Z,21.93
2019-05-07T23:34:55.873Z,14.38
2019-05-07T23:37:25.992Z,21.95
2019-05-07T23:39:57.870Z,22.10
2019-05-07T23:42:35.289Z,19.35
2019-05-07T23:45:06.923Z,13.00
2019-05-07T23:47:37.062Z,13.30
2019-05-07T23:50:07.258Z,10.15
2019-05-07T23:52:37.174Z,9.13
2019-05-07T23:55:07.613Z,9.75
2019-05-07T23:57:37.865Z,11.60
